Latest Weather Observations for Norah Head

IDN60901

Issued at 12:41 pm EDT Thursday 23 January 2020 (issued every 10 minutes, with the page automatically refreshed every 10 minutes)

About weather observations | Map of Sydney area stations | Latest observations for Sydney area | Other Formats
Station Details ID: 061366 Name: NORAH HEAD AWS Lat: -33.28 Lon: 151.58 Height: 18.8 m
Data from the previous 72 hours. | See also: Recent months at Norah Head
Date/Time
EDT
Temp
°C
App
Temp
°C
Dew
Point
°C
Rel
Hum
%
Delta-T
°C
Wind Press
QNH
hPa
Press
MSL
hPa
Rain since
9am
mm
Dir  Spd
km/h
Gust
km/h
Spd
kts
Gust
kts
23/12:32pm 37.1 31.2 16.6 29 13.2 N 43 63 23 34 1001.3 1001.2 0.0
23/12:30pm 37.2 31.7 16.7 29 13.2 NNW 41 59 22 32 1001.5 1001.4 0.0
23/12:06pm 37.3 33.2 17.3 30 13.0 NNW 35 56 19 30 1002.2 1002.1 0.0
23/12:00pm 37.0 31.6 16.0 28 13.4 NNW 39 56 21 30 1002.1 1002.0 0.0
23/11:30am 34.3 30.9 19.1 40 10.0 N 35 46 19 25 1002.7 1002.6 0.0
23/11:00am 33.3 29.5 19.7 44 9.0 N 39 48 21 26 1003.0 1002.9 0.0
23/10:30am 32.8 28.7 20.0 47 8.5 N 41 48 22 26 1003.2 1003.1 0.0
23/10:00am 31.9 27.4 19.9 49 8.0 N 43 52 23 28 1003.4 1003.3 0.0
23/09:30am 31.3 26.9 19.3 49 7.8 N 41 46 22 25 1003.8 1003.7 0.0
23/09:00am 30.5 26.1 19.2 51 7.4 N 41 46 22 25 1004.2 1004.1 0.0
23/08:30am 29.8 27.2 19.5 54 6.7 N 32 37 17 20 1004.4 1004.3 0.0
23/08:00am 28.6 27.7 19.8 59 5.8 N 24 30 13 16 1004.4 1004.3 0.0
23/07:30am 26.1 29.6 20.4 71 3.7 ENE 2 6 1 3 1004.6 1004.5 0.0
23/07:00am 24.3 26.3 19.1 73 3.3 N 7 11 4 6 1004.3 1004.2 0.0
23/06:30am 22.2 23.6 18.6 80 2.3 NNW 9 11 5 6 1004.2 1004.1 0.0
23/06:00am 22.7 24.3 18.3 76 2.8 NW 7 13 4 7 1004.0 1003.9 0.0
23/05:30am 22.4 24.0 18.2 77 2.6 NW 7 11 4 6 1004.1 1004.0 0.0
23/05:00am 21.7 23.0 18.5 82 2.0 NW 9 15 5 8 1004.1 1004.0 0.0
23/04:30am 21.7 23.6 18.9 84 1.8 NW 7 9 4 5 1004.3 1004.2 0.0
23/04:00am 22.1 23.2 18.9 82 2.0 NNW 11 15 6 8 1004.2 1004.1 0.0
23/03:30am 23.1 24.2 22.3 95 0.5 N 20 28 11 15 1004.0 1003.9 0.0
23/03:00am 23.6 24.0 23.1 97 0.3 NNE 26 30 14 16 1003.8 1003.7 0.0
23/02:30am 23.6 24.7 23.1 97 0.3 NE 22 26 12 14 1004.2 1004.1 0.0
23/02:00am 23.8 24.5 23.0 95 0.5 NNE 24 28 13 15 1004.7 1004.7 0.0
23/01:30am 24.0 23.4 22.6 92 0.9 NNE 30 33 16 18 1005.2 1005.2 0.0
23/01:00am 24.2 23.7 22.1 88 1.4 NNE 28 32 15 17 1005.6 1005.6 0.0
23/12:30am 24.0 23.7 21.9 88 1.4 NNE 26 28 14 15 1006.0 1006.0 0.0
23/12:00am 24.1 23.8 21.8 87 1.5 NNE 26 30 14 16 1006.1 1006.1 0.0
 
Date/Time
EDT
Temp
°C
App
Temp
°C
Dew
Point
°C
Rel
Hum
%
Delta-T
°C
Wind Press
QNH
hPa
Press
MSL
hPa
Rain since
9am
mm
Dir  Spd
km/h
Gust
km/h
Spd
kts
Gust
kts
22/11:30pm 24.2 24.0 22.1 88 1.4 NNE 26 28 14 15 1006.3 1006.3 0.0
22/11:00pm 24.4 23.6 23.0 92 0.9 NNE 32 35 17 19 1006.3 1006.3 0.0
22/10:30pm 24.6 23.1 23.4 93 0.8 NNE 37 41 20 22 1006.2 1006.2 0.0
22/10:00pm 24.7 24.2 23.5 93 0.8 NNE 32 37 17 20 1006.2 1006.2 0.0
22/09:30pm 24.6 24.3 23.9 96 0.5 NNE 32 37 17 20 1005.8 1005.8 0.0
22/09:00pm 24.6 25.4 24.4 99 0.1 NNE 28 33 15 18 1005.8 1005.8 0.0
22/08:30pm 24.9 24.9 24.4 97 0.3 NNE 32 37 17 20 1005.9 1005.9 0.0
22/08:00pm 25.2 24.6 24.3 95 0.6 NNE 35 41 19 22 1005.7 1005.7 0.0
22/07:30pm 25.5 24.9 24.3 93 0.8 NNE 35 41 19 22 1005.5 1005.5 0.0
22/07:00pm 25.8 27.2 24.2 91 1.1 NE 24 28 13 15 1005.4 1005.4 0.0
22/06:30pm 26.2 27.8 23.9 87 1.6 NE 22 26 12 14 1005.2 1005.2 0.0
22/06:00pm 27.5 29.1 23.9 81 2.5 NE 22 26 12 14 1005.3 1005.3 0.0
22/05:30pm 28.2 30.0 24.2 79 2.8 ENE 22 28 12 15 1005.4 1005.4 0.0
22/05:00pm 27.2 27.9 23.7 81 2.4 E 26 30 14 16 1005.4 1005.4 0.0
22/04:30pm 27.3 28.0 23.7 81 2.5 E 26 30 14 16 1005.9 1005.9 0.0
22/04:00pm 27.5 28.2 23.7 80 2.6 E 26 30 14 16 1006.5 1006.5 0.0
22/03:30pm 27.8 28.6 23.8 79 2.8 E 26 30 14 16 1007.0 1007.0 0.0
22/03:00pm 28.2 29.3 23.6 76 3.2 ENE 24 28 13 15 1007.6 1007.6 0.0
22/02:30pm 28.8 29.8 23.5 73 3.6 ENE 24 30 13 16 1008.1 1008.1 0.0
22/02:00pm 29.9 31.7 23.6 69 4.4 ENE 20 24 11 13 1008.6 1008.6 0.0
22/01:30pm 30.1 32.0 23.8 69 4.4 ENE 20 24 11 13 1009.1 1009.1 0.0
22/01:00pm 29.3 31.6 23.5 71 4.0 ENE 17 19 9 10 1009.8 1009.7 0.0
22/12:30pm 29.0 32.2 23.7 73 3.7 E 13 17 7 9 1010.2 1010.1 0.0
22/12:00pm 28.3 31.5 23.0 73 3.6 E 11 13 6 7 1010.6 1010.5 0.0
22/11:30am 26.5 30.0 22.1 77 3.0 ESE 7 11 4 6 1011.0 1010.9 0.0
22/11:00am 25.9 29.3 22.0 79 2.6 ESE 7 7 4 4 1011.3 1011.2 0.0
22/10:30am 26.0 29.7 22.3 80 2.5 SE 6 7 3 4 1011.6 1011.5 0.0
22/10:00am 24.8 28.2 20.9 79 2.6 S 4 6 2 3 1011.7 1011.6 0.0
22/09:30am 25.1 28.3 21.2 79 2.6 S 6 6 3 3 1011.7 1011.6 0.0
22/09:00am 25.0 28.3 21.5 81 2.3 S 6 7 3 4 1011.6 1011.5 0.0
22/08:30am 24.2 27.5 21.5 85 1.8 SSW 6 9 3 5 1011.6 1011.5 0.0
22/08:00am 23.3 26.6 21.4 89 1.3 SSW 6 9 3 5 1011.4 1011.3 0.0
22/07:30am 22.4 25.5 21.0 92 0.9 SW 6 9 3 5 1011.1 1011.0 0.0
22/07:00am 21.8 24.9 21.0 95 0.5 SW 6 9 3 5 1011.0 1010.9 0.0
22/06:30am 21.3 24.2 21.1 99 0.1 SW 7 9 4 5 1010.7 1010.6 0.0
22/06:00am 21.5 23.7 21.2 98 0.2 WSW 11 13 6 7 1010.7 1010.6 0.0
22/05:30am 21.8 24.8 21.3 97 0.3 SW 7 9 4 5 1010.3 1010.2 0.0
22/05:00am 21.7 24.8 21.4 98 0.2 SW 7 9 4 5 1010.1 1010.0 0.0
22/04:30am 21.9 25.1 21.7 99 0.1 SW 7 11 4 6 1010.0 1009.9 0.0
22/04:00am 22.1 25.4 21.9 99 0.1 SW 7 9 4 5 1010.1 1010.0 0.0
22/03:30am 22.3 25.8 22.1 99 0.1 SW 7 11 4 6 1010.0 1009.9 0.0
22/03:00am 22.6 25.9 21.9 96 0.5 SW 7 11 4 6 1010.1 1010.0 0.0
22/02:30am 22.5 26.0 21.1 92 0.9 SW 4 4 2 2 1010.3 1010.2 0.0
22/02:00am 22.5 26.8 21.1 92 0.9 CALM 0 0 0 0 1010.5 1010.4 0.0
22/01:30am 22.8 27.2 21.4 92 0.9 CALM 0 4 0 2 1010.5 1010.4 0.0
22/01:00am 22.9 26.5 21.2 90 1.1 NNW 4 6 2 3 1010.6 1010.5 0.0
22/12:30am 22.9 26.1 21.2 90 1.1 NNW 6 7 3 4 1010.9 1010.8 0.0
22/12:00am 22.9 26.1 21.2 90 1.1 NNW 6 9 3 5 1010.8 1010.7 0.0
 
Date/Time
EDT
Temp
°C
App
Temp
°C
Dew
Point
°C
Rel
Hum
%
Delta-T
°C
Wind Press
QNH
hPa
Press
MSL
hPa
Rain since
9am
mm
Dir  Spd
km/h
Gust
km/h
Spd
kts
Gust
kts
21/11:30pm 22.9 26.2 21.4 91 1.0 NNW 6 7 3 4 1010.9 1010.8 0.0
21/11:00pm 23.1 26.4 21.4 90 1.1 NNE 6 7 3 4 1010.8 1010.7 0.0
21/10:30pm 23.2 25.7 21.1 88 1.4 NNE 9 11 5 6 1010.6 1010.5 0.0
21/10:00pm 23.5 26.3 20.8 85 1.8 E 7 9 4 5 1010.2 1010.1 0.0
21/09:30pm 23.4 25.7 20.7 85 1.8 NE 9 13 5 7 1010.0 1009.9 0.0
21/09:00pm 23.6 25.4 20.3 82 2.1 ENE 11 13 6 7 1009.6 1009.5 0.0
21/08:30pm 23.9 26.0 20.2 80 2.4 ENE 9 11 5 6 1009.1 1009.1 0.0
21/08:00pm 24.3 25.1 19.8 76 2.9 E 15 20 8 11 1008.6 1008.6 0.0
21/07:30pm 24.5 24.1 19.3 73 3.3 SE 20 22 11 12 1007.8 1007.8 0.0
21/07:00pm 25.2 25.0 19.8 72 3.5 SE 20 26 11 14 1007.5 1007.5 0.0
21/06:30pm 25.6 24.9 19.5 69 3.9 SE 22 26 12 14 1006.9 1006.9 0.0
21/06:00pm 26.1 25.0 19.5 67 4.3 SE 24 28 13 15 1006.6 1006.6 0.0
21/05:30pm 26.4 24.8 19.3 65 4.6 SSE 26 32 14 17 1006.4 1006.4 0.0
21/05:00pm 26.8 24.1 18.4 60 5.4 SSE 30 33 16 18 1006.3 1006.3 0.0
21/04:30pm 27.3 24.5 18.3 58 5.7 SSE 30 35 16 19 1006.4 1006.4 0.0
21/04:00pm 27.6 25.4 18.6 58 5.8 SSE 28 33 15 18 1006.4 1006.4 0.0
21/03:30pm 28.8 28.2 19.7 58 5.9 SSE 22 26 12 14 1006.6 1006.6 0.0
21/03:00pm 28.6 27.4 19.2 56 6.1 SE 24 28 13 15 1006.7 1006.7 0.0
21/02:30pm 28.2 25.5 19.2 58 5.8 SSE 32 35 17 19 1006.4 1006.4 0.0
21/02:00pm 28.1 25.8 19.3 58 5.7 SSE 30 33 16 18 1006.6 1006.6 0.0
21/01:30pm 29.1 26.4 17.6 50 7.3 SE 28 32 15 17 1006.8 1006.8 0.0
21/01:00pm 29.5 27.1 18.3 51 7.2 SSE 28 30 15 16 1006.8 1006.8 0.0
21/12:30pm 29.3 29.2 19.6 56 6.3 SE 19 24 10 13 1007.0 1007.0 0.0
21/12:00pm 29.5 30.6 18.0 50 7.4 SSE 9 13 5 7 1007.1 1007.1 0.0
21/11:30am 30.1 29.7 12.5 34 10.4 WSW 6 13 3 7 1007.2 1007.2 0.0
21/11:00am 30.0 29.8 13.7 37 9.8 NW 7 17 4 9 1007.3 1007.3 0.0
21/10:30am 29.0 28.3 13.2 37 9.4 WNW 9 15 5 8 1007.4 1007.4 0.0
21/10:00am 28.1 27.8 13.2 39 8.8 WNW 7 15 4 8 1007.5 1007.5 0.0
21/09:30am 28.0 28.4 15.3 46 7.7 NW 7 13 4 7 1007.4 1007.4 0.0
21/09:00am 27.0 28.6 17.8 57 5.8 NNW 6 9 3 5 1007.3 1007.3 3.8
21/08:30am 25.5 27.2 19.4 69 3.9 NNW 9 11 5 6 1007.3 1007.3 3.8
21/08:00am 24.6 26.1 17.6 65 4.4 NW 6 9 3 5 1007.0 1007.0 3.8
21/07:30am 23.2 24.2 16.3 65 4.2 WNW 6 11 3 6 1006.6 1006.6 3.8
21/07:00am 22.1 22.7 15.9 68 3.7 WNW 7 11 4 6 1006.2 1006.2 3.8
21/06:30am 22.1 22.5 15.2 65 4.1 WNW 7 11 4 6 1005.6 1005.6 3.8
21/06:00am 22.2 22.5 15.1 64 4.2 WNW 7 11 4 6 1005.2 1005.2 3.8
21/05:30am 21.9 21.6 16.4 71 3.3 W 13 19 7 10 1004.5 1004.4 3.8
21/05:00am 22.3 21.5 16.1 68 3.8 W 15 19 8 10 1003.9 1003.8 3.8
21/04:30am 21.9 20.9 16.6 72 3.2 W 17 20 9 11 1003.7 1003.6 3.8
21/04:00am 22.1 21.7 17.2 74 3.0 W 15 19 8 10 1003.6 1003.5 3.8
21/03:30am 22.8 22.7 17.0 70 3.6 W 13 15 7 8 1003.4 1003.3 3.8
21/03:00am 22.4 21.3 17.3 73 3.2 W 19 22 10 12 1003.6 1003.5 3.8
21/02:30am 21.6 20.9 18.2 81 2.1 W 19 22 10 12 1003.7 1003.6 3.8
21/02:00am 21.6 22.5 19.3 87 1.5 W 13 19 7 10 1003.6 1003.5 3.8
21/01:30am 20.7 23.0 19.5 93 0.8 NW 6 11 3 6 1003.5 1003.4 3.8
21/01:00am 21.2 23.6 19.7 91 1.0 NNW 6 9 3 5 1003.5 1003.4 3.8
21/12:30am 21.7 23.5 19.6 88 1.3 W 9 13 5 7 1003.8 1003.7 3.8
21/12:00am 21.9 23.9 20.0 89 1.2 W 9 13 5 7 1004.1 1004.0 3.8
 
Date/Time
EDT
Temp
°C
App
Temp
°C
Dew
Point
°C
Rel
Hum
%
Delta-T
°C
Wind Press
QNH
hPa
Press
MSL
hPa
Rain since
9am
mm
Dir  Spd
km/h
Gust
km/h
Spd
kts
Gust
kts
20/11:30pm 21.7 24.0 20.7 94 0.6 W 9 13 5 7 1004.0 1003.9 3.6
20/11:00pm 22.0 25.6 21.3 96 0.5 SW 4 9 2 5 1003.9 1003.8 3.6
20/10:30pm 21.7 24.8 21.0 96 0.5 WSW 6 11 3 6 1003.8 1003.7 3.6
20/10:00pm 22.1 25.2 21.4 96 0.5 W 7 13 4 7 1003.5 1003.4 3.6
20/09:30pm 21.8 23.9 20.1 90 1.1 WSW 9 13 5 7 1003.1 1003.0 3.6
20/09:00pm 22.8 22.8 20.1 85 1.7 SSW 20 33 11 18 1001.7 1001.6 0.6
20/08:39pm 22.5 18.4 19.9 85 1.7 SSW 41 57 22 31 1001.6 1001.5 0.6
20/08:30pm 23.4 19.5 20.3 83 2.0 SW 41 74 22 40 1000.9 1000.8 0.6
20/08:28pm 23.3 20.4 20.1 82 2.1 SSW 35 74 19 40 1000.4 1000.3 0.6
20/08:27pm 23.4 21.2 20.3 83 2.0 SSW 32 72 17 39 1000.3 1000.2 0.6
20/08:10pm 23.5 22.0 20.2 82 2.1 SW 28 46 15 25 1000.3 1000.2 0.6
20/08:00pm 23.9 23.2 21.0 84 1.9 SSW 26 35 14 19 999.9 999.8 0.6
20/07:30pm 26.5 28.2 21.7 75 3.2 SW 15 26 8 14 999.5 999.4 0.6
20/07:14pm 25.3 26.9 22.8 86 1.7 N 19 33 10 18 998.8 998.7 0.6
20/07:00pm 25.2 22.5 22.7 86 1.7 NNE 41 44 22 24 997.2 997.1 0.6
20/06:30pm 25.9 21.9 22.0 79 2.6 NNE 46 56 25 30 997.3 997.2 0.6
20/06:00pm 26.1 21.4 20.7 72 3.6 NNE 46 54 25 29 997.0 996.9 0.6
20/05:30pm 25.5 22.4 22.0 81 2.3 NNE 41 50 22 27 997.2 997.1 0.6
20/05:00pm 25.6 23.5 22.3 82 2.2 NNE 37 46 20 25 997.2 997.1 0.6
20/04:30pm 25.6 22.9 21.9 80 2.5 NE 39 48 21 26 997.6 997.5 0.4
20/04:00pm 25.5 23.9 23.9 91 1.1 NNE 39 46 21 25 998.0 997.9 0.4
20/03:30pm 25.8 25.0 25.3 97 0.3 NE 39 52 21 28 998.3 998.2 0.4
20/03:00pm 23.9 24.4 23.9 100 0.0 NNE 28 35 15 19 999.0 998.9 0.4
20/02:30pm 25.5 26.6 22.0 81 2.3 NE 19 24 10 13 1000.1 1000.0 0.0
20/02:00pm 30.6 33.4 25.2 73 3.8 ENE 20 28 11 15 1000.1 1000.0 0.0
20/01:30pm 28.3 30.5 23.2 74 3.5 ENE 17 20 9 11 1000.6 1000.5 0.0
20/01:00pm 27.6 30.3 23.4 78 2.9 E 15 17 8 9 1001.8 1001.7 0.0

Latest Capital City Observations: Canberra | Sydney | Melbourne | Brisbane | Adelaide | Perth | Hobart | Darwin

Other formats

Comma delimited format used in spreadsheet applications
http://www.bom.gov.au/fwo/IDN60901/IDN60901.95770.axf

JavaScript Object Notation format (JSON) in row-major order
http://www.bom.gov.au/fwo/IDN60901/IDN60901.95770.json

Data quality

Most of these data are generated automatically and are frequently updated. Quality checks on data are not normally performed. It is possible for incorrect values to appear. Refer to information at About Latest Weather Observations and please check the disclaimer before using these data.